Main page
METAR-TAF:

METAR-TAF

Airports :

Charles de Gaulle Airport

Paris-Charles De Gaulle, France

latitude: 49-01N, longitude: 002-32E, elevation: 118 m

Current weather observation

The report was made 27 minutes ago, at 23:30 UTC
Wind 9 kt from the West
Temperature 15°C
Humidity 72%
Pressure 1022 hPa
Visibility 10 km or more
Scattered clouds at a height of 2400 ft
Broken clouds at a height of 4000 ft

METAR: LFPG 252330Z 26009KT 9999 SCT024 BKN040 15/10 Q1022 NOSIG

Time: 01:57 (23:57 UTC)

Forecast

The report was made 57 minutes ago, at 23:00 UTC
Forecast valid from 26 at 00 UTC to 27 at 06 UTC
Wind 10 kt from the West/Northwest
Visibility 10 km or more
Broken clouds at a height of 2500 ft
Probability 30% :
Temporary
from 26 at 04 UTC to 26 at 07 UTC
Broken clouds at a height of 1400 ft
Probability 40% :
Temporary
from 27 at 02 UTC to 27 at 06 UTC
Broken clouds at a height of 1200 ft

TAF: LFPG 252300Z 2600/2706 29010KT 9999 BKN025 TX21/2615Z TN14/2604Z PROB30 TEMPO 2604/2607 BKN014 PROB40 TEMPO 2702/2706 BKN012

Weather observations and forecasts of more than 4000 airports (METAR and TAF reports).

The available stations are represented by yellow and red dots on the map.

Hover mouse over dot to see the name of the station.

Then click to see weather observations and forecasts.

To change the map : click on the green buttons with a black cross to zoom in, on the green button with a dash to zoom out, or on the green arrows for adjacent maps.


METAR-TAF: